sensor_id;sensor_type;location;lat;lon;timestamp;pressure;altitude;pressure_sealevel;temperature;humidity
82160;BME280;71734;50.876;7.372;2024-01-27T00:00:45;100830.97;;;3.88;86.23
82160;BME280;71734;50.876;7.372;2024-01-27T00:03:11;100833.63;;;3.89;85.11
82160;BME280;71734;50.876;7.372;2024-01-27T00:05:38;100831.06;;;3.91;85.94
82160;BME280;71734;50.876;7.372;2024-01-27T00:08:04;100832.03;;;3.97;85.83
82160;BME280;71734;50.876;7.372;2024-01-27T00:10:32;100829.28;;;3.90;85.10
82160;BME280;71734;50.876;7.372;2024-01-27T00:12:59;100818.75;;;3.87;85.63
82160;BME280;71734;50.876;7.372;2024-01-27T00:15:26;100817.63;;;3.74;85.30
82160;BME280;71734;50.876;7.372;2024-01-27T00:17:52;100822.97;;;3.80;86.04
82160;BME280;71734;50.876;7.372;2024-01-27T00:20:19;100825.63;;;3.82;85.57
82160;BME280;71734;50.876;7.372;2024-01-27T00:22:46;100830.69;;;3.72;85.75
82160;BME280;71734;50.876;7.372;2024-01-27T00:25:15;100831.28;;;3.59;86.32
82160;BME280;71734;50.876;7.372;2024-01-27T00:27:43;100834.94;;;3.66;86.92
82160;BME280;71734;50.876;7.372;2024-01-27T00:30:10;100831.81;;;3.85;86.79
82160;BME280;71734;50.876;7.372;2024-01-27T00:32:37;100829.09;;;3.81;86.26
82160;BME280;71734;50.876;7.372;2024-01-27T00:35:04;100831.56;;;3.73;85.09
82160;BME280;71734;50.876;7.372;2024-01-27T00:37:31;100839.53;;;3.78;85.20
82160;BME280;71734;50.876;7.372;2024-01-27T00:39:57;100839.50;;;3.74;84.90
82160;BME280;71734;50.876;7.372;2024-01-27T00:42:24;100839.41;;;3.71;85.58
82160;BME280;71734;50.876;7.372;2024-01-27T00:44:52;100836.91;;;3.79;86.24
82160;BME280;71734;50.876;7.372;2024-01-27T00:47:18;100832.47;;;3.73;85.70
82160;BME280;71734;50.876;7.372;2024-01-27T00:49:45;100837.47;;;3.61;85.83
82160;BME280;71734;50.876;7.372;2024-01-27T00:52:11;100843.69;;;3.66;85.76
82160;BME280;71734;50.876;7.372;2024-01-27T00:54:38;100846.22;;;3.63;84.44
82160;BME280;71734;50.876;7.372;2024-01-27T00:57:04;100848.75;;;3.57;85.39
82160;BME280;71734;50.876;7.372;2024-01-27T00:59:31;100848.00;;;3.64;85.69
82160;BME280;71734;50.876;7.372;2024-01-27T01:01:59;100847.91;;;3.58;86.50
82160;BME280;71734;50.876;7.372;2024-01-27T01:04:25;100857.41;;;3.53;86.60
82160;BME280;71734;50.876;7.372;2024-01-27T01:06:51;100859.72;;;3.38;86.65
82160;BME280;71734;50.876;7.372;2024-01-27T01:09:18;100861.53;;;3.42;86.84
82160;BME280;71734;50.876;7.372;2024-01-27T01:11:44;100863.28;;;3.43;86.48
82160;BME280;71734;50.876;7.372;2024-01-27T01:14:11;100850.09;;;3.39;85.71
82160;BME280;71734;50.876;7.372;2024-01-27T01:16:38;100864.84;;;3.35;86.25
82160;BME280;71734;50.876;7.372;2024-01-27T01:19:06;100863.13;;;3.34;86.47
82160;BME280;71734;50.876;7.372;2024-01-27T01:21:32;100864.94;;;3.38;86.47
82160;BME280;71734;50.876;7.372;2024-01-27T01:23:59;100865.84;;;3.40;85.55
82160;BME280;71734;50.876;7.372;2024-01-27T01:26:25;100871.72;;;3.28;85.44
82160;BME280;71734;50.876;7.372;2024-01-27T01:28:52;100871.47;;;3.18;85.22
82160;BME280;71734;50.876;7.372;2024-01-27T01:31:18;100876.84;;;3.24;87.01
82160;BME280;71734;50.876;7.372;2024-01-27T01:33:45;100874.06;;;3.18;86.28
82160;BME280;71734;50.876;7.372;2024-01-27T01:36:13;100876.69;;;3.18;86.58
82160;BME280;71734;50.876;7.372;2024-01-27T01:38:39;100877.63;;;3.20;86.60
82160;BME280;71734;50.876;7.372;2024-01-27T01:41:06;100882.03;;;3.21;86.12
82160;BME280;71734;50.876;7.372;2024-01-27T01:43:32;100871.41;;;3.15;85.62
82160;BME280;71734;50.876;7.372;2024-01-27T01:45:59;100880.69;;;3.01;86.30
82160;BME280;71734;50.876;7.372;2024-01-27T01:48:26;100870.28;;;3.04;86.51
82160;BME280;71734;50.876;7.372;2024-01-27T01:50:53;100864.19;;;3.05;86.87
82160;BME280;71734;50.876;7.372;2024-01-27T01:53:22;100870.84;;;2.91;86.38
82160;BME280;71734;50.876;7.372;2024-01-27T01:55:49;100871.59;;;2.85;87.20
82160;BME280;71734;50.876;7.372;2024-01-27T01:58:16;100871.59;;;2.85;87.55
82160;BME280;71734;50.876;7.372;2024-01-27T02:00:42;100872.56;;;2.89;87.46
82160;BME280;71734;50.876;7.372;2024-01-27T02:03:10;100870.78;;;2.88;87.28
82160;BME280;71734;50.876;7.372;2024-01-27T02:05:36;100862.00;;;2.86;87.93
82160;BME280;71734;50.876;7.372;2024-01-27T02:08:03;100865.59;;;2.91;87.54
82160;BME280;71734;50.876;7.372;2024-01-27T02:10:31;100862.97;;;2.89;87.87
82160;BME280;71734;50.876;7.372;2024-01-27T02:13:01;100872.47;;;2.86;87.78
82160;BME280;71734;50.876;7.372;2024-01-27T02:15:28;100865.47;;;2.85;87.88
82160;BME280;71734;50.876;7.372;2024-01-27T02:17:54;100871.72;;;2.91;87.26
82160;BME280;71734;50.876;7.372;2024-01-27T02:20:21;100877.78;;;2.89;87.37
82160;BME280;71734;50.876;7.372;2024-01-27T02:22:47;100874.19;;;2.84;86.67
82160;BME280;71734;50.876;7.372;2024-01-27T02:25:15;100874.19;;;2.84;87.86
82160;BME280;71734;50.876;7.372;2024-01-27T02:27:42;100872.34;;;2.79;87.71
82160;BME280;71734;50.876;7.372;2024-01-27T02:30:09;100874.13;;;2.80;87.55
82160;BME280;71734;50.876;7.372;2024-01-27T02:32:35;100878.41;;;2.77;88.25
82160;BME280;71734;50.876;7.372;2024-01-27T02:35:02;100873.06;;;2.74;87.41
82160;BME280;71734;50.876;7.372;2024-01-27T02:37:28;100873.00;;;2.71;87.32
82160;BME280;71734;50.876;7.372;2024-01-27T02:39:55;100875.66;;;2.72;87.65
82160;BME280;71734;50.876;7.372;2024-01-27T02:42:23;100887.97;;;2.76;87.20
82160;BME280;71734;50.876;7.372;2024-01-27T02:44:50;100885.91;;;2.63;86.03
82160;BME280;71734;50.876;7.372;2024-01-27T02:47:16;100887.47;;;2.57;86.60
82160;BME280;71734;50.876;7.372;2024-01-27T02:49:43;100873.53;;;2.56;87.30
82160;BME280;71734;50.876;7.372;2024-01-27T02:52:09;100881.28;;;2.53;88.32
82160;BME280;71734;50.876;7.372;2024-01-27T02:54:36;100876.19;;;2.59;87.90
82160;BME280;71734;50.876;7.372;2024-01-27T02:57:03;100885.94;;;2.65;87.12
82160;BME280;71734;50.876;7.372;2024-01-27T02:59:30;100895.47;;;2.63;87.11
82160;BME280;71734;50.876;7.372;2024-01-27T03:01:57;100884.81;;;2.55;88.23
82160;BME280;71734;50.876;7.372;2024-01-27T03:04:23;100880.38;;;2.53;87.88
82160;BME280;71734;50.876;7.372;2024-01-27T03:06:50;100883.94;;;2.55;87.87
82160;BME280;71734;50.876;7.372;2024-01-27T03:09:16;100897.59;;;2.43;87.43
82160;BME280;71734;50.876;7.372;2024-01-27T03:11:43;100888.84;;;2.43;87.59
82160;BME280;71734;50.876;7.372;2024-01-27T03:14:10;100887.97;;;2.42;87.79
82160;BME280;71734;50.876;7.372;2024-01-27T03:16:38;100879.22;;;2.42;88.20
82160;BME280;71734;50.876;7.372;2024-01-27T03:19:04;100883.69;;;2.44;88.12
82160;BME280;71734;50.876;7.372;2024-01-27T03:21:31;100892.50;;;2.49;88.09
82160;BME280;71734;50.876;7.372;2024-01-27T03:23:58;100894.94;;;2.42;86.77
82160;BME280;71734;50.876;7.372;2024-01-27T03:26:24;100899.28;;;2.41;87.53
82160;BME280;71734;50.876;7.372;2024-01-27T03:28:51;100887.84;;;2.36;87.86
82160;BME280;71734;50.876;7.372;2024-01-27T03:31:17;100905.31;;;2.39;88.29
82160;BME280;71734;50.876;7.372;2024-01-27T03:33:45;100902.66;;;2.37;88.36
82160;BME280;71734;50.876;7.372;2024-01-27T03:36:13;100892.06;;;2.31;87.78
82160;BME280;71734;50.876;7.372;2024-01-27T03:38:40;100883.25;;;2.29;88.40
82160;BME280;71734;50.876;7.372;2024-01-27T03:41:07;100887.72;;;2.31;88.45
82160;BME280;71734;50.876;7.372;2024-01-27T03:43:33;100894.69;;;2.32;88.84
82160;BME280;71734;50.876;7.372;2024-01-27T03:46:01;100891.09;;;2.29;87.95
82160;BME280;71734;50.876;7.372;2024-01-27T03:48:28;100881.53;;;2.28;89.41
82160;BME280;71734;50.876;7.372;2024-01-27T03:50:56;100889.44;;;2.31;89.37
82160;BME280;71734;50.876;7.372;2024-01-27T03:53:22;100885.03;;;2.30;89.19
82160;BME280;71734;50.876;7.372;2024-01-27T03:55:49;100882.38;;;2.28;89.05
82160;BME280;71734;50.876;7.372;2024-01-27T03:58:15;100887.59;;;2.27;88.98
82160;BME280;71734;50.876;7.372;2024-01-27T04:00:42;100895.44;;;2.27;88.54
82160;BME280;71734;50.876;7.372;2024-01-27T04:03:08;100890.13;;;2.24;88.63
82160;BME280;71734;50.876;7.372;2024-01-27T04:05:35;100899.56;;;2.19;88.96
82160;BME280;71734;50.876;7.372;2024-01-27T04:08:04;100902.13;;;2.16;88.73
82160;BME280;71734;50.876;7.372;2024-01-27T04:10:31;100910.88;;;2.18;88.86
82160;BME280;71734;50.876;7.372;2024-01-27T04:12:58;100903.78;;;2.14;89.46
82160;BME280;71734;50.876;7.372;2024-01-27T04:15:24;100910.94;;;2.21;88.08
82160;BME280;71734;50.876;7.372;2024-01-27T04:17:51;100907.25;;;2.13;88.84
82160;BME280;71734;50.876;7.372;2024-01-27T04:20:17;100914.31;;;2.17;89.26
82160;BME280;71734;50.876;7.372;2024-01-27T04:22:44;100918.66;;;2.16;88.17
82160;BME280;71734;50.876;7.372;2024-01-27T04:25:12;100920.28;;;2.11;88.24
82160;BME280;71734;50.876;7.372;2024-01-27T04:27:39;100918.34;;;2.04;88.41
82160;BME280;71734;50.876;7.372;2024-01-27T04:30:07;100921.75;;;2.02;89.04
82160;BME280;71734;50.876;7.372;2024-01-27T04:32:33;100926.16;;;2.03;88.67
82160;BME280;71734;50.876;7.372;2024-01-27T04:35:00;100928.72;;;2.01;88.85
82160;BME280;71734;50.876;7.372;2024-01-27T04:37:27;100929.56;;;2.00;89.69
82160;BME280;71734;50.876;7.372;2024-01-27T04:39:53;100926.84;;;1.96;89.46
82160;BME280;71734;50.876;7.372;2024-01-27T04:42:21;100932.91;;;1.95;89.52
82160;BME280;71734;50.876;7.372;2024-01-27T04:44:47;100931.94;;;1.93;88.61
82160;BME280;71734;50.876;7.372;2024-01-27T04:47:14;100930.94;;;1.87;89.55
82160;BME280;71734;50.876;7.372;2024-01-27T04:49:40;100935.41;;;1.92;89.84
82160;BME280;71734;50.876;7.372;2024-01-27T04:52:07;100936.53;;;2.00;89.46
82160;BME280;71734;50.876;7.372;2024-01-27T04:54:33;100935.50;;;1.95;88.41
82160;BME280;71734;50.876;7.372;2024-01-27T04:57:00;100918.81;;;1.90;89.89
82160;BME280;71734;50.876;7.372;2024-01-27T04:59:27;100925.84;;;1.92;89.34
82160;BME280;71734;50.876;7.372;2024-01-27T05:01:54;100932.09;;;1.97;89.53
82160;BME280;71734;50.876;7.372;2024-01-27T05:04:20;100928.44;;;1.92;89.88
82160;BME280;71734;50.876;7.372;2024-01-27T05:06:47;100931.19;;;1.97;89.33
82160;BME280;71734;50.876;7.372;2024-01-27T05:09:14;100926.78;;;1.94;88.97
82160;BME280;71734;50.876;7.372;2024-01-27T05:11:41;100921.47;;;1.91;88.96
82160;BME280;71734;50.876;7.372;2024-01-27T05:14:10;100931.03;;;1.91;89.89
82160;BME280;71734;50.876;7.372;2024-01-27T05:16:38;100926.66;;;1.90;89.69
82160;BME280;71734;50.876;7.372;2024-01-27T05:19:05;100921.34;;;1.86;89.37
82160;BME280;71734;50.876;7.372;2024-01-27T05:21:31;100927.34;;;1.84;89.54
82160;BME280;71734;50.876;7.372;2024-01-27T05:23:58;100922.00;;;1.79;89.18
82160;BME280;71734;50.876;7.372;2024-01-27T05:26:24;100918.38;;;1.74;89.64
82160;BME280;71734;50.876;7.372;2024-01-27T05:28:51;100934.97;;;1.76;89.81
82160;BME280;71734;50.876;7.372;2024-01-27T05:31:17;100934.91;;;1.73;89.22
82160;BME280;71734;50.876;7.372;2024-01-27T05:33:45;100929.59;;;1.70;89.56
82160;BME280;71734;50.876;7.372;2024-01-27T05:36:12;100919.22;;;1.73;90.52
82160;BME280;71734;50.876;7.372;2024-01-27T05:38:38;100929.00;;;1.80;89.97
82160;BME280;71734;50.876;7.372;2024-01-27T05:41:05;100913.22;;;1.77;89.31
82160;BME280;71734;50.876;7.372;2024-01-27T05:43:31;100916.66;;;1.75;89.24
82160;BME280;71734;50.876;7.372;2024-01-27T05:45:58;100917.63;;;1.78;90.05
82160;BME280;71734;50.876;7.372;2024-01-27T05:48:24;100920.84;;;1.70;89.13
82160;BME280;71734;50.876;7.372;2024-01-27T05:50:56;100915.50;;;1.65;89.42
82160;BME280;71734;50.876;7.372;2024-01-27T05:53:23;100924.50;;;1.75;90.42
82160;BME280;71734;50.876;7.372;2024-01-27T05:55:49;100928.66;;;1.68;90.50
82160;BME280;71734;50.876;7.372;2024-01-27T05:58:16;100933.78;;;1.65;90.87
82160;BME280;71734;50.876;7.372;2024-01-27T06:00:43;100935.44;;;1.63;90.26
82160;BME280;71734;50.876;7.372;2024-01-27T06:03:10;100935.38;;;1.60;89.95
82160;BME280;71734;50.876;7.372;2024-01-27T06:05:36;100937.16;;;1.61;90.11
82160;BME280;71734;50.876;7.372;2024-01-27T06:08:05;100930.94;;;1.58;89.65
82160;BME280;71734;50.876;7.372;2024-01-27T06:10:32;100928.38;;;1.59;90.25
82160;BME280;71734;50.876;7.372;2024-01-27T06:12:59;100937.16;;;1.61;90.12
82160;BME280;71734;50.876;7.372;2024-01-27T06:15:25;100938.81;;;1.59;89.10
82160;BME280;71734;50.876;7.372;2024-01-27T06:17:52;100931.84;;;1.58;89.94
82160;BME280;71734;50.876;7.372;2024-01-27T06:20:18;100933.47;;;1.55;90.34
82160;BME280;71734;50.876;7.372;2024-01-27T06:22:45;100930.97;;;1.59;90.12
82160;BME280;71734;50.876;7.372;2024-01-27T06:25:14;100930.91;;;1.56;89.54
82160;BME280;71734;50.876;7.372;2024-01-27T06:27:41;100931.19;;;1.37;88.87
82160;BME280;71734;50.876;7.372;2024-01-27T06:30:09;100933.91;;;1.40;90.33
82160;BME280;71734;50.876;7.372;2024-01-27T06:32:36;100939.09;;;1.38;90.55
82160;BME280;71734;50.876;7.372;2024-01-27T06:35:03;100941.94;;;1.46;90.47
82160;BME280;71734;50.876;7.372;2024-01-27T06:37:29;100953.34;;;1.50;90.69
82160;BME280;71734;50.876;7.372;2024-01-27T06:39:56;100955.81;;;1.45;90.06
82160;BME280;71734;50.876;7.372;2024-01-27T06:42:24;100957.47;;;1.43;90.62
82160;BME280;71734;50.876;7.372;2024-01-27T06:44:50;100960.31;;;1.49;90.35
82160;BME280;71734;50.876;7.372;2024-01-27T06:47:17;100954.25;;;1.50;89.99
82160;BME280;71734;50.876;7.372;2024-01-27T06:49:43;100952.53;;;1.52;90.47
82160;BME280;71734;50.876;7.372;2024-01-27T06:52:10;100952.38;;;1.46;90.39
82160;BME280;71734;50.876;7.372;2024-01-27T06:54:37;100957.63;;;1.48;90.55
82160;BME280;71734;50.876;7.372;2024-01-27T06:57:06;100965.47;;;1.48;89.79
82160;BME280;71734;50.876;7.372;2024-01-27T06:59:34;100962.63;;;1.40;90.32
82160;BME280;71734;50.876;7.372;2024-01-27T07:02:00;100967.63;;;1.32;90.31
82160;BME280;71734;50.876;7.372;2024-01-27T07:04:27;100974.66;;;1.35;90.80
82160;BME280;71734;50.876;7.372;2024-01-27T07:06:53;100971.91;;;1.30;89.99
82160;BME280;71734;50.876;7.372;2024-01-27T07:09:20;100981.47;;;1.30;90.18
82160;BME280;71734;50.876;7.372;2024-01-27T07:11:46;100985.84;;;1.31;90.70
82160;BME280;71734;50.876;7.372;2024-01-27T07:14:13;100974.97;;;1.17;89.94
82160;BME280;71734;50.876;7.372;2024-01-27T07:16:41;100983.06;;;1.25;90.64
82160;BME280;71734;50.876;7.372;2024-01-27T07:19:07;100986.56;;;1.27;90.17
82160;BME280;71734;50.876;7.372;2024-01-27T07:21:34;100996.25;;;1.29;90.18
82160;BME280;71734;50.876;7.372;2024-01-27T07:24:00;100995.44;;;1.32;90.40
82160;BME280;71734;50.876;7.372;2024-01-27T07:26:28;100999.00;;;1.34;90.42
82160;BME280;71734;50.876;7.372;2024-01-27T07:28:54;100997.22;;;1.33;90.15
82160;BME280;71734;50.876;7.372;2024-01-27T07:31:21;100990.06;;;1.26;89.55
82160;BME280;71734;50.876;7.372;2024-01-27T07:33:50;100984.13;;;1.31;89.95
82160;BME280;71734;50.876;7.372;2024-01-27T07:36:17;100991.06;;;1.31;89.24
82160;BME280;71734;50.876;7.372;2024-01-27T07:38:43;100983.22;;;1.31;90.33
82160;BME280;71734;50.876;7.372;2024-01-27T07:41:10;100991.19;;;1.34;90.41
82160;BME280;71734;50.876;7.372;2024-01-27T07:43:37;100993.00;;;1.36;89.70
82160;BME280;71734;50.876;7.372;2024-01-27T07:46:03;100998.31;;;1.39;90.29
82160;BME280;71734;50.876;7.372;2024-01-27T07:48:30;100999.19;;;1.40;89.42
82160;BME280;71734;50.876;7.372;2024-01-27T07:50:57;100997.69;;;1.47;89.75
82160;BME280;71734;50.876;7.372;2024-01-27T07:53:24;100993.59;;;1.56;89.07
82160;BME280;71734;50.876;7.372;2024-01-27T07:55:51;100990.38;;;1.65;88.95
82160;BME280;71734;50.876;7.372;2024-01-27T07:58:19;100979.25;;;1.70;88.64
82160;BME280;71734;50.876;7.372;2024-01-27T08:00:45;100983.72;;;1.74;88.75
82160;BME280;71734;50.876;7.372;2024-01-27T08:03:12;100988.06;;;1.75;86.85
82160;BME280;71734;50.876;7.372;2024-01-27T08:05:39;100974.09;;;1.73;87.75
82160;BME280;71734;50.876;7.372;2024-01-27T08:08:06;100989.53;;;1.94;87.45
82160;BME280;71734;50.876;7.372;2024-01-27T08:10:33;100980.38;;;2.10;86.30
82160;BME280;71734;50.876;7.372;2024-01-27T08:13:02;100977.59;;;2.35;85.71
82160;BME280;71734;50.876;7.372;2024-01-27T08:15:28;100983.81;;;2.71;83.81
82160;BME280;71734;50.876;7.372;2024-01-27T08:17:55;100989.13;;;3.09;82.48
82160;BME280;71734;50.876;7.372;2024-01-27T08:20:21;101001.88;;;3.30;80.98
82160;BME280;71734;50.876;7.372;2024-01-27T08:22:48;100988.34;;;3.49;80.21
82160;BME280;71734;50.876;7.372;2024-01-27T08:25:18;100997.84;;;3.84;78.39
82160;BME280;71734;50.876;7.372;2024-01-27T08:27:44;100987.13;;;4.14;76.77
82160;BME280;71734;50.876;7.372;2024-01-27T08:30:12;100989.22;;;4.30;75.96
82160;BME280;71734;50.876;7.372;2024-01-27T08:32:38;101003.09;;;3.84;79.55
82160;BME280;71734;50.876;7.372;2024-01-27T08:35:06;100998.28;;;4.04;78.71
82160;BME280;71734;50.876;7.372;2024-01-27T08:37:33;100998.63;;;4.65;76.70
82160;BME280;71734;50.876;7.372;2024-01-27T08:40:05;100988.72;;;4.99;75.64
82160;BME280;71734;50.876;7.372;2024-01-27T08:42:33;100989.94;;;5.18;72.85
82160;BME280;71734;50.876;7.372;2024-01-27T08:45:00;100996.38;;;5.39;71.49
82160;BME280;71734;50.876;7.372;2024-01-27T08:47:26;101003.94;;;5.75;71.19
82160;BME280;71734;50.876;7.372;2024-01-27T08:49:52;101007.06;;;6.07;69.65
82160;BME280;71734;50.876;7.372;2024-01-27T08:52:19;101010.84;;;6.30;67.92
82160;BME280;71734;50.876;7.372;2024-01-27T08:54:45;101009.06;;;6.29;67.66
82160;BME280;71734;50.876;7.372;2024-01-27T08:57:15;101013.91;;;6.67;68.18
82160;BME280;71734;50.876;7.372;2024-01-27T08:59:43;101015.75;;;6.75;66.13
82160;BME280;71734;50.876;7.372;2024-01-27T09:02:09;101010.56;;;6.86;66.97
82160;BME280;71734;50.876;7.372;2024-01-27T09:04:36;101013.91;;;6.67;65.91
82160;BME280;71734;50.876;7.372;2024-01-27T09:07:03;101017.19;;;6.47;66.99
82160;BME280;71734;50.876;7.372;2024-01-27T09:09:29;101013.81;;;6.59;66.76
82160;BME280;71734;50.876;7.372;2024-01-27T09:11:55;101023.25;;;6.40;66.18
82160;BME280;71734;50.876;7.372;2024-01-27T09:14:22;101013.22;;;6.86;66.72
82160;BME280;71734;50.876;7.372;2024-01-27T09:16:51;101005.56;;;7.13;65.15
82160;BME280;71734;50.876;7.372;2024-01-27T09:19:17;101005.09;;;7.66;63.24
82160;BME280;71734;50.876;7.372;2024-01-27T09:21:44;101006.97;;;7.85;62.83
82160;BME280;71734;50.876;7.372;2024-01-27T09:24:10;101010.34;;;7.61;61.92
82160;BME280;71734;50.876;7.372;2024-01-27T09:26:37;101004.50;;;8.27;62.73
82160;BME280;71734;50.876;7.372;2024-01-27T09:29:03;100988.75;;;8.39;61.74
82160;BME280;71734;50.876;7.372;2024-01-27T09:31:30;100990.63;;;8.83;60.95
82160;BME280;71734;50.876;7.372;2024-01-27T09:33:57;100993.28;;;8.83;58.45
82160;BME280;71734;50.876;7.372;2024-01-27T09:36:27;100982.72;;;9.22;58.03
82160;BME280;71734;50.876;7.372;2024-01-27T09:38:56;100982.69;;;8.81;58.52
82160;BME280;71734;50.876;7.372;2024-01-27T09:41:30;100986.25;;;9.03;57.99
82160;BME280;71734;50.876;7.372;2024-01-27T09:43:59;100990.63;;;9.50;58.11
82160;BME280;71734;50.876;7.372;2024-01-27T09:46:28;100987.09;;;9.57;57.39
82160;BME280;71734;50.876;7.372;2024-01-27T09:48:55;100992.41;;;9.39;59.68
82160;BME280;71734;50.876;7.372;2024-01-27T09:51:24;101004.72;;;9.67;57.94
82160;BME280;71734;50.876;7.372;2024-01-27T09:53:54;100997.69;;;9.29;56.64
82160;BME280;71734;50.876;7.372;2024-01-27T09:56:21;101009.16;;;9.53;58.16
82160;BME280;71734;50.876;7.372;2024-01-27T09:58:50;101000.31;;;9.69;56.74
82160;BME280;71734;50.876;7.372;2024-01-27T10:01:21;101000.34;;;9.61;56.54
82160;BME280;71734;50.876;7.372;2024-01-27T10:03:48;100998.59;;;9.36;57.87
82160;BME280;71734;50.876;7.372;2024-01-27T10:06:14;100998.53;;;9.78;57.23
82160;BME280;71734;50.876;7.372;2024-01-27T10:08:53;100998.47;;;10.06;58.25
82160;BME280;71734;50.876;7.372;2024-01-27T10:11:20;100992.13;;;10.48;56.70
82160;BME280;71734;50.876;7.372;2024-01-27T10:13:53;100985.13;;;10.35;55.53
82160;BME280;71734;50.876;7.372;2024-01-27T10:16:20;100985.28;;;9.83;56.70
82160;BME280;71734;50.876;7.372;2024-01-27T10:18:46;100986.19;;;9.80;55.33
82160;BME280;71734;50.876;7.372;2024-01-27T10:21:13;100987.88;;;10.06;55.61
82160;BME280;71734;50.876;7.372;2024-01-27T10:23:40;100999.44;;;9.55;54.67
82160;BME280;71734;50.876;7.372;2024-01-27T10:26:10;100997.63;;;9.90;57.04
82160;BME280;71734;50.876;7.372;2024-01-27T10:28:36;100995.94;;;9.25;55.82
82160;BME280;71734;50.876;7.372;2024-01-27T10:31:09;101006.50;;;9.63;57.18
82160;BME280;71734;50.876;7.372;2024-01-27T10:33:36;101001.19;;;9.86;54.61
82160;BME280;71734;50.876;7.372;2024-01-27T10:36:03;100995.78;;;10.12;54.85
82160;BME280;71734;50.876;7.372;2024-01-27T10:38:37;101009.88;;;10.32;54.62
82160;BME280;71734;50.876;7.372;2024-01-27T10:41:07;101025.06;;;9.21;54.28
82160;BME280;71734;50.876;7.372;2024-01-27T10:43:37;101025.72;;;8.33;57.91
82160;BME280;71734;50.876;7.372;2024-01-27T10:46:06;101032.97;;;9.04;57.13
82160;BME280;71734;50.876;7.372;2024-01-27T10:48:34;101023.22;;;9.85;55.45
82160;BME280;71734;50.876;7.372;2024-01-27T10:51:08;101033.78;;;10.18;54.82
82160;BME280;71734;50.876;7.372;2024-01-27T10:53:35;101029.28;;;10.39;55.33
82160;BME280;71734;50.876;7.372;2024-01-27T10:56:03;101038.28;;;9.65;54.13
82160;BME280;71734;50.876;7.372;2024-01-27T10:58:34;101032.72;;;10.57;53.55
82160;BME280;71734;50.876;7.372;2024-01-27T11:01:07;101028.25;;;10.68;54.21
82160;BME280;71734;50.876;7.372;2024-01-27T11:03:36;101020.22;;;10.81;52.98
82160;BME280;71734;50.876;7.372;2024-01-27T11:06:05;101017.72;;;10.55;53.46
82160;BME280;71734;50.876;7.372;2024-01-27T11:08:33;101015.06;;;10.59;53.06
82160;BME280;71734;50.876;7.372;2024-01-27T11:10:59;101011.50;;;10.62;52.61
82160;BME280;71734;50.876;7.372;2024-01-27T11:13:27;101017.84;;;10.20;52.12
82160;BME280;71734;50.876;7.372;2024-01-27T11:15:55;101023.25;;;9.68;53.66
82160;BME280;71734;50.876;7.372;2024-01-27T11:18:25;101024.06;;;10.10;53.31
82160;BME280;71734;50.876;7.372;2024-01-27T11:20:52;101014.22;;;10.45;53.67
82160;BME280;71734;50.876;7.372;2024-01-27T11:23:19;101014.19;;;10.53;50.93
82160;BME280;71734;50.876;7.372;2024-01-27T11:25:45;101022.59;;;11.25;52.18
82160;BME280;71734;50.876;7.372;2024-01-27T11:28:13;101028.53;;;11.51;51.95
82160;BME280;71734;50.876;7.372;2024-01-27T11:30:45;101027.25;;;11.96;49.76
82160;BME280;71734;50.876;7.372;2024-01-27T11:33:13;101021.00;;;12.01;49.34
82160;BME280;71734;50.876;7.372;2024-01-27T11:35:41;101016.97;;;11.61;49.56
82160;BME280;71734;50.876;7.372;2024-01-27T11:38:07;101008.00;;;11.74;50.77
82160;BME280;71734;50.876;7.372;2024-01-27T11:40:44;101003.78;;;12.33;48.73
82160;BME280;71734;50.876;7.372;2024-01-27T11:43:11;101009.59;;;11.90;48.96
82160;BME280;71734;50.876;7.372;2024-01-27T11:45:39;101005.16;;;11.92;50.44
82160;BME280;71734;50.876;7.372;2024-01-27T11:48:06;101004.28;;;11.93;47.95
82160;BME280;71734;50.876;7.372;2024-01-27T11:50:32;100997.94;;;12.03;48.65
82160;BME280;71734;50.876;7.372;2024-01-27T11:53:00;101010.81;;;11.56;48.92
82160;BME280;71734;50.876;7.372;2024-01-27T11:55:27;101003.16;;;12.13;49.10
82160;BME280;71734;50.876;7.372;2024-01-27T11:57:53;100986.06;;;12.32;47.49
82160;BME280;71734;50.876;7.372;2024-01-27T12:00:20;100981.56;;;11.57;47.46
82160;BME280;71734;50.876;7.372;2024-01-27T12:02:50;100988.34;;;10.91;48.75
82160;BME280;71734;50.876;7.372;2024-01-27T12:05:16;100989.78;;;11.32;48.75
82160;BME280;71734;50.876;7.372;2024-01-27T12:07:43;100993.66;;;11.92;49.92
82160;BME280;71734;50.876;7.372;2024-01-27T12:10:11;100986.00;;;12.38;47.16
82160;BME280;71734;50.876;7.372;2024-01-27T12:12:37;100984.69;;;12.69;48.32
82160;BME280;71734;50.876;7.372;2024-01-27T12:15:05;100988.63;;;13.03;46.36
82160;BME280;71734;50.876;7.372;2024-01-27T12:17:31;100997.22;;;12.61;46.83
82160;BME280;71734;50.876;7.372;2024-01-27T12:19:59;100998.06;;;11.91;47.88
82160;BME280;71734;50.876;7.372;2024-01-27T12:22:27;100996.97;;;12.12;48.10
82160;BME280;71734;50.876;7.372;2024-01-27T12:24:55;100998.97;;;11.90;47.98
82160;BME280;71734;50.876;7.372;2024-01-27T12:27:24;101002.28;;;11.21;49.66
82160;BME280;71734;50.876;7.372;2024-01-27T12:29:50;101013.63;;;11.35;51.03
82160;BME280;71734;50.876;7.372;2024-01-27T12:32:17;101014.09;;;11.85;51.14
82160;BME280;71734;50.876;7.372;2024-01-27T12:34:44;101007.00;;;11.84;49.40
82160;BME280;71734;50.876;7.372;2024-01-27T12:37:13;101008.66;;;11.97;48.02
82160;BME280;71734;50.876;7.372;2024-01-27T12:39:41;101009.91;;;11.54;48.63
82160;BME280;71734;50.876;7.372;2024-01-27T12:42:08;101000.34;;;12.25;48.75
82160;BME280;71734;50.876;7.372;2024-01-27T12:44:36;101006.91;;;10.91;49.34
82160;BME280;71734;50.876;7.372;2024-01-27T12:47:02;101004.09;;;11.09;48.38
82160;BME280;71734;50.876;7.372;2024-01-27T12:49:29;100997.16;;;11.97;50.53
82160;BME280;71734;50.876;7.372;2024-01-27T12:51:56;101001.78;;;11.75;49.58
82160;BME280;71734;50.876;7.372;2024-01-27T12:54:22;100983.94;;;11.89;48.12
82160;BME280;71734;50.876;7.372;2024-01-27T12:56:49;100987.09;;;12.22;48.90